createdAt,value
2022-08-25T00:00:22.817Z,1.50
2022-08-25T00:02:56.086Z,1.33
2022-08-25T00:05:29.111Z,1.60
2022-08-25T00:07:58.299Z,1.35
2022-08-25T00:10:26.967Z,1.40
2022-08-25T00:12:55.577Z,1.70
2022-08-25T00:15:25.359Z,1.40
2022-08-25T00:17:54.892Z,1.52
2022-08-25T00:20:25.818Z,1.48
2022-08-25T00:22:56.369Z,1.30
2022-08-25T00:25:26.099Z,1.50
2022-08-25T00:27:54.958Z,1.45
2022-08-25T00:30:23.375Z,1.20
2022-08-25T00:32:55.263Z,1.40
2022-08-25T00:35:27.282Z,1.33
2022-08-25T00:40:27.330Z,1.40
2022-08-25T00:42:56.127Z,1.60
2022-08-25T00:45:26.099Z,1.60
2022-08-25T00:47:54.578Z,1.60
2022-08-25T00:50:28.445Z,1.50
2022-08-25T00:53:00.244Z,1.50
2022-08-25T00:55:39.477Z,1.35
2022-08-25T00:58:22.186Z,1.40
2022-08-25T01:00:56.141Z,1.60
2022-08-25T01:03:36.080Z,1.70
2022-08-25T01:06:07.641Z,1.55
2022-08-25T01:08:35.908Z,1.80
2022-08-25T01:11:10.780Z,1.70
2022-08-25T01:13:47.468Z,1.70
2022-08-25T01:16:17.874Z,1.52
2022-08-25T01:18:54.051Z,1.50
2022-08-25T01:21:25.450Z,1.65
2022-08-25T01:26:35.405Z,1.58
2022-08-25T01:29:21.501Z,1.80
2022-08-25T01:31:56.884Z,1.58
2022-08-25T01:34:32.269Z,1.88
2022-08-25T01:37:02.448Z,1.83
2022-08-25T01:39:37.044Z,2.08
2022-08-25T01:42:11.352Z,1.90
2022-08-25T01:44:45.156Z,2.00
2022-08-25T01:47:16.260Z,2.22
2022-08-25T01:49:46.099Z,2.10
2022-08-25T01:52:33.700Z,1.77
2022-08-25T01:55:01.915Z,2.03
2022-08-25T01:57:32.421Z,2.40
2022-08-25T02:00:01.776Z,2.10
2022-08-25T02:02:42.606Z,2.20
2022-08-25T02:05:20.332Z,2.28
2022-08-25T02:07:52.115Z,2.40
2022-08-25T02:10:20.357Z,2.42
2022-08-25T02:12:48.677Z,2.45
2022-08-25T02:15:17.911Z,2.53
2022-08-25T02:17:46.433Z,2.45
2022-08-25T02:20:15.621Z,2.90
2022-08-25T02:22:45.057Z,2.42
2022-08-25T02:27:53.363Z,2.67
2022-08-25T02:30:21.671Z,2.70
2022-08-25T02:32:49.791Z,2.72
2022-08-25T02:35:19.410Z,2.40
2022-08-25T02:37:50.248Z,2.97
2022-08-25T02:40:21.474Z,2.85
2022-08-25T02:42:51.753Z,2.60
2022-08-25T02:45:19.794Z,2.58
2022-08-25T02:47:50.341Z,2.55
2022-08-25T02:50:18.594Z,3.00
2022-08-25T02:52:50.809Z,3.85
2022-08-25T02:57:48.564Z,3.25
2022-08-25T03:00:17.712Z,3.03
2022-08-25T03:02:48.074Z,3.20
2022-08-25T03:05:17.545Z,2.80
2022-08-25T03:07:45.639Z,2.70
2022-08-25T03:10:19.165Z,2.88
2022-08-25T03:12:48.315Z,2.70
2022-08-25T03:15:18.171Z,2.83
2022-08-25T03:17:50.631Z,2.75
2022-08-25T03:20:20.672Z,2.88
2022-08-25T03:22:50.722Z,3.05
2022-08-25T03:25:38.285Z,2.67
2022-08-25T03:28:08.798Z,3.00
2022-08-25T03:30:37.347Z,2.80
2022-08-25T03:33:05.726Z,2.70
2022-08-25T03:35:34.494Z,2.95
2022-08-25T03:38:03.016Z,2.95
2022-08-25T03:40:34.196Z,2.83
2022-08-25T03:43:04.175Z,3.20
2022-08-25T03:45:32.377Z,3.10
2022-08-25T03:48:00.251Z,2.72
2022-08-25T03:50:28.443Z,3.10
2022-08-25T03:52:57.941Z,2.83
2022-08-25T03:55:28.346Z,3.58
2022-08-25T03:57:58.403Z,3.40
2022-08-25T04:00:27.575Z,3.35
2022-08-25T04:02:55.827Z,3.35
2022-08-25T04:05:26.782Z,3.70
2022-08-25T04:07:56.153Z,3.75
2022-08-25T04:10:24.944Z,4.07
2022-08-25T04:12:53.043Z,3.83
2022-08-25T04:15:21.137Z,3.30
2022-08-25T04:17:51.135Z,4.40
2022-08-25T04:20:21.066Z,3.90
2022-08-25T04:22:49.838Z,3.90
2022-08-25T04:25:18.576Z,3.67
2022-08-25T04:27:47.751Z,3.60
2022-08-25T04:30:16.382Z,3.53
2022-08-25T04:32:46.085Z,3.60
2022-08-25T04:35:15.094Z,3.78
2022-08-25T04:37:43.614Z,3.58
2022-08-25T04:40:12.099Z,3.95
2022-08-25T04:42:40.344Z,3.88
2022-08-25T04:45:09.051Z,4.15
2022-08-25T04:47:39.767Z,4.20
2022-08-25T04:50:10.268Z,3.92
2022-08-25T04:52:38.549Z,4.30
2022-08-25T04:55:09.929Z,4.10
2022-08-25T05:00:07.701Z,4.40
2022-08-25T05:02:36.580Z,4.38
2022-08-25T05:05:06.896Z,4.20
2022-08-25T05:10:04.869Z,4.22
2022-08-25T05:12:33.666Z,4.07
2022-08-25T05:15:26.624Z,4.22
2022-08-25T05:17:56.106Z,4.20
2022-08-25T05:20:26.984Z,4.35
2022-08-25T05:22:55.439Z,4.45
2022-08-25T05:25:23.553Z,4.50
2022-08-25T05:27:52.601Z,4.97
2022-08-25T05:30:21.512Z,5.60
2022-08-25T05:32:50.604Z,4.60
2022-08-25T05:35:21.341Z,5.38
2022-08-25T05:37:51.366Z,5.10
2022-08-25T05:40:19.577Z,4.95
2022-08-25T05:42:48.903Z,5.35
2022-08-25T05:45:20.381Z,4.80
2022-08-25T05:47:49.411Z,4.67
2022-08-25T05:50:18.727Z,4.30
2022-08-25T05:52:47.277Z,5.07
2022-08-25T05:55:17.149Z,4.60
2022-08-25T05:57:45.542Z,4.18
2022-08-25T06:00:14.447Z,4.82
2022-08-25T06:02:46.641Z,4.55
2022-08-25T06:05:22.452Z,4.43
2022-08-25T06:07:52.979Z,4.82
2022-08-25T06:10:22.691Z,4.78
2022-08-25T06:12:51.938Z,4.70
2022-08-25T06:18:00.874Z,4.82
2022-08-25T06:20:32.185Z,4.60
2022-08-25T06:23:20.627Z,5.10
2022-08-25T06:26:20.868Z,5.28
2022-08-25T06:28:51.456Z,4.75
2022-08-25T06:31:22.726Z,5.03
2022-08-25T06:33:52.557Z,4.75
2022-08-25T06:36:21.926Z,5.22
2022-08-25T06:38:50.535Z,4.95
2022-08-25T06:41:18.845Z,4.93
2022-08-25T06:43:51.815Z,4.53
2022-08-25T06:46:28.852Z,4.70
2022-08-25T06:49:08.153Z,4.70
2022-08-25T06:51:36.493Z,4.60
2022-08-25T06:54:06.829Z,4.93
2022-08-25T06:56:36.481Z,4.40
2022-08-25T06:59:08.154Z,4.30
2022-08-25T07:01:39.161Z,4.70
2022-08-25T07:04:12.896Z,4.57
2022-08-25T07:06:42.054Z,4.68
2022-08-25T07:09:13.041Z,5.10
2022-08-25T07:11:42.617Z,4.60
2022-08-25T07:14:13.623Z,4.30
2022-08-25T07:16:48.588Z,4.75
2022-08-25T07:19:21.264Z,4.80
2022-08-25T07:21:53.191Z,4.40
2022-08-25T07:24:22.828Z,4.43
2022-08-25T07:26:51.788Z,4.72
2022-08-25T07:29:32.973Z,4.97
2022-08-25T07:32:02.746Z,4.30
2022-08-25T07:34:52.269Z,4.47
2022-08-25T07:37:47.659Z,4.50
2022-08-25T07:40:24.183Z,4.70
2022-08-25T07:45:30.582Z,4.28
2022-08-25T07:48:09.266Z,3.90
2022-08-25T07:50:42.691Z,4.10
2022-08-25T07:53:15.035Z,3.88
2022-08-25T07:55:45.058Z,4.07
2022-08-25T07:58:16.928Z,3.95
2022-08-25T08:00:50.723Z,3.75
2022-08-25T08:03:42.088Z,3.92
2022-08-25T08:06:17.064Z,4.13
2022-08-25T08:08:49.357Z,4.05
2022-08-25T08:11:41.471Z,4.10
2022-08-25T08:14:13.746Z,3.80
2022-08-25T08:16:45.696Z,5.15
2022-08-25T08:19:13.646Z,3.83
2022-08-25T08:21:44.572Z,3.67
2022-08-25T08:24:31.231Z,3.55
2022-08-25T08:27:03.840Z,3.92
2022-08-25T08:29:32.575Z,3.80
2022-08-25T08:32:00.696Z,3.40
2022-08-25T08:34:29.422Z,3.97
2022-08-25T08:36:58.839Z,3.80
2022-08-25T08:39:29.054Z,3.50
2022-08-25T08:42:18.209Z,3.60
2022-08-25T08:44:46.121Z,3.67
2022-08-25T08:47:19.905Z,3.22
2022-08-25T08:50:28.067Z,3.83
2022-08-25T08:53:12.135Z,3.15
2022-08-25T08:55:52.459Z,3.15
2022-08-25T08:59:06.300Z,3.30
2022-08-25T09:01:45.753Z,3.40
2022-08-25T09:04:51.865Z,3.20
2022-08-25T09:07:32.722Z,3.13
2022-08-25T09:10:02.696Z,3.05
2022-08-25T09:13:15.314Z,3.15
2022-08-25T09:16:34.125Z,3.10
2022-08-25T09:19:36.146Z,3.20
2022-08-25T09:22:35.089Z,3.33
2022-08-25T09:28:55.675Z,3.13
2022-08-25T09:32:06.923Z,3.00
2022-08-25T09:34:37.015Z,3.30
2022-08-25T09:37:04.936Z,3.30
2022-08-25T09:39:32.906Z,2.90
2022-08-25T09:42:01.072Z,2.95
2022-08-25T09:44:45.791Z,3.10
2022-08-25T09:47:28.019Z,2.83
2022-08-25T09:52:29.808Z,2.80
2022-08-25T09:55:08.238Z,2.90
2022-08-25T09:57:45.491Z,3.03
2022-08-25T10:00:29.673Z,3.40
2022-08-25T10:03:24.769Z,2.80
2022-08-25T10:05:58.895Z,2.72
2022-08-25T10:08:46.086Z,2.65
2022-08-25T10:11:49.835Z,2.80
2022-08-25T10:14:32.858Z,2.80
2022-08-25T10:17:30.075Z,2.65
2022-08-25T10:20:10.553Z,2.33
2022-08-25T10:22:41.323Z,2.72
2022-08-25T10:25:14.420Z,2.60
2022-08-25T10:28:04.436Z,2.55
2022-08-25T10:33:45.798Z,2.28
2022-08-25T10:36:40.045Z,3.33
2022-08-25T10:39:40.720Z,2.70
2022-08-25T10:42:42.717Z,2.50
2022-08-25T10:45:45.058Z,2.42
2022-08-25T10:48:39.185Z,2.70
2022-08-25T10:51:38.132Z,2.70
2022-08-25T10:54:18.985Z,2.65
2022-08-25T10:57:25.729Z,2.47
2022-08-25T11:00:31.450Z,2.60
2022-08-25T11:03:44.960Z,2.80
2022-08-25T11:06:26.708Z,2.78
2022-08-25T11:09:01.253Z,2.50
2022-08-25T11:11:43.423Z,2.63
2022-08-25T11:15:00.081Z,2.45
2022-08-25T11:17:41.963Z,2.65
2022-08-25T11:20:26.901Z,2.50
2022-08-25T11:23:20.394Z,2.53
2022-08-25T11:25:56.349Z,2.42
2022-08-25T11:29:13.357Z,2.70
2022-08-25T11:31:53.653Z,2.63
2022-08-25T11:34:23.528Z,3.22
2022-08-25T11:36:55.393Z,2.70
2022-08-25T11:40:12.194Z,2.78
2022-08-25T11:43:12.994Z,2.70
2022-08-25T11:45:47.353Z,4.43
2022-08-25T11:48:45.312Z,3.55
2022-08-25T11:51:47.762Z,2.80
2022-08-25T11:54:26.471Z,2.97
2022-08-25T11:57:10.645Z,2.42
2022-08-25T11:59:53.543Z,2.60
2022-08-25T12:02:42.899Z,2.60
2022-08-25T12:05:22.431Z,2.40
2022-08-25T12:08:13.564Z,2.55
2022-08-25T12:11:11.439Z,3.15
2022-08-25T12:13:47.785Z,2.88
2022-08-25T12:16:35.725Z,2.50
2022-08-25T12:19:23.039Z,2.90
2022-08-25T12:21:53.110Z,2.80
2022-08-25T12:24:47.523Z,2.60
2022-08-25T12:27:51.900Z,2.88
2022-08-25T12:30:30.839Z,3.17
2022-08-25T12:33:28.352Z,2.78
2022-08-25T12:36:05.435Z,2.75
2022-08-25T12:38:52.965Z,2.80
2022-08-25T12:41:31.057Z,2.67
2022-08-25T12:44:47.920Z,2.60
2022-08-25T12:47:25.114Z,2.97
2022-08-25T12:50:41.177Z,2.55
2022-08-25T12:53:42.931Z,2.63
2022-08-25T12:56:42.377Z,2.80
2022-08-25T12:59:21.857Z,2.97
2022-08-25T13:02:20.962Z,2.75
2022-08-25T13:05:22.636Z,2.40
2022-08-25T13:08:23.303Z,2.28
2022-08-25T13:11:36.853Z,3.70
2022-08-25T13:14:43.887Z,3.00
2022-08-25T13:17:48.475Z,2.53
2022-08-25T13:20:30.873Z,3.28
2022-08-25T13:23:01.256Z,10.15
2022-08-25T13:25:34.944Z,3.65
2022-08-25T13:28:10.818Z,2.95
2022-08-25T13:30:41.623Z,3.13
2022-08-25T13:33:23.104Z,2.47
2022-08-25T13:36:15.340Z,2.40
2022-08-25T13:38:46.884Z,2.35
2022-08-25T13:41:28.654Z,2.78
2022-08-25T13:44:01.852Z,2.67
2022-08-25T13:46:31.750Z,7.57
2022-08-25T13:49:09.925Z,14.23
2022-08-25T13:51:53.149Z,8.20
2022-08-25T13:54:41.112Z,3.25
2022-08-25T13:57:24.199Z,2.40
2022-08-25T14:00:01.597Z,7.32
2022-08-25T14:02:53.476Z,3.95
2022-08-25T14:05:43.140Z,3.30
2022-08-25T14:08:35.733Z,2.50
2022-08-25T14:11:15.693Z,3.05
2022-08-25T14:13:45.639Z,2.25
2022-08-25T14:16:21.388Z,2.05
2022-08-25T14:18:59.427Z,2.00
2022-08-25T14:21:32.442Z,2.33
2022-08-25T14:24:06.783Z,2.17
2022-08-25T14:26:53.919Z,2.40
2022-08-25T14:29:23.962Z,2.40
2022-08-25T14:31:53.869Z,2.40
2022-08-25T14:34:34.667Z,2.30
2022-08-25T14:37:12.518Z,2.30
2022-08-25T14:42:13.833Z,4.65
2022-08-25T14:44:42.290Z,3.33
2022-08-25T14:47:10.541Z,2.45
2022-08-25T14:49:42.686Z,2.00
2022-08-25T14:52:27.446Z,2.17
2022-08-25T14:54:57.788Z,2.00
2022-08-25T14:57:26.882Z,2.00
2022-08-25T14:59:55.324Z,2.10
2022-08-25T15:02:30.653Z,2.15
2022-08-25T15:05:06.447Z,2.47
2022-08-25T15:07:54.954Z,2.50
2022-08-25T15:10:23.807Z,2.05
2022-08-25T15:12:54.848Z,2.03
2022-08-25T15:15:26.440Z,2.00
2022-08-25T15:17:58.110Z,1.92
2022-08-25T15:20:29.160Z,2.20
2022-08-25T15:22:57.477Z,2.00
2022-08-25T15:25:26.083Z,2.10
2022-08-25T15:27:56.480Z,2.00
2022-08-25T15:30:31.017Z,1.92
2022-08-25T15:33:00.942Z,2.28
2022-08-25T15:35:29.407Z,2.20
2022-08-25T15:37:57.537Z,2.13
2022-08-25T15:40:26.779Z,2.40
2022-08-25T15:42:55.253Z,2.10
2022-08-25T15:45:24.227Z,2.28
2022-08-25T15:47:54.030Z,1.98
2022-08-25T15:50:26.031Z,2.03
2022-08-25T15:52:55.144Z,2.10
2022-08-25T15:55:23.138Z,1.90
2022-08-25T15:57:51.368Z,2.05
2022-08-25T16:00:21.536Z,2.00
2022-08-25T16:02:49.800Z,1.80
2022-08-25T16:05:22.488Z,2.17
2022-08-25T16:07:54.005Z,1.80
2022-08-25T16:10:22.386Z,2.10
2022-08-25T16:12:50.402Z,1.67
2022-08-25T16:15:19.174Z,1.77
2022-08-25T16:18:00.485Z,1.90
2022-08-25T16:20:31.974Z,1.80
2022-08-25T16:23:03.884Z,1.85
2022-08-25T16:28:04.435Z,1.77
2022-08-25T16:30:32.600Z,1.80
2022-08-25T16:33:01.038Z,1.75
2022-08-25T16:35:29.734Z,1.80
2022-08-25T16:37:57.657Z,1.80
2022-08-25T16:40:26.568Z,2.00
2022-08-25T16:42:55.394Z,1.83
2022-08-25T16:45:25.001Z,1.90
2022-08-25T16:47:54.255Z,1.98
2022-08-25T16:50:23.895Z,1.75
2022-08-25T16:53:10.704Z,1.63
2022-08-25T16:55:40.288Z,1.83
2022-08-25T16:58:12.543Z,1.90
2022-08-25T17:00:44.564Z,1.65
2022-08-25T17:03:13.109Z,1.85
2022-08-25T17:05:43.724Z,1.65
2022-08-25T17:08:31.051Z,1.70
2022-08-25T17:11:12.926Z,1.60
2022-08-25T17:13:46.195Z,1.90
2022-08-25T17:16:15.630Z,1.70
2022-08-25T17:18:47.581Z,1.48
2022-08-25T17:21:24.549Z,1.88
2022-08-25T17:23:56.659Z,1.63
2022-08-25T17:26:27.578Z,1.88
2022-08-25T17:29:02.001Z,1.65
2022-08-25T17:31:30.899Z,2.05
2022-08-25T17:33:59.694Z,1.80
2022-08-25T17:36:29.347Z,1.95
2022-08-25T17:38:57.642Z,1.90
2022-08-25T17:41:27.009Z,2.00
2022-08-25T17:43:56.384Z,1.88
2022-08-25T17:46:24.692Z,2.08
2022-08-25T17:48:54.156Z,1.98
2022-08-25T17:51:23.757Z,2.53
2022-08-25T17:53:52.873Z,1.90
2022-08-25T17:56:24.287Z,1.90
2022-08-25T17:58:56.996Z,2.30
2022-08-25T18:01:40.556Z,2.22
2022-08-25T18:04:17.292Z,2.00
2022-08-25T18:06:48.506Z,2.00
2022-08-25T18:09:18.061Z,1.90
2022-08-25T18:11:46.754Z,2.00
2022-08-25T18:14:16.698Z,1.88
2022-08-25T18:16:45.656Z,2.10
2022-08-25T18:19:15.590Z,2.20
2022-08-25T18:21:43.767Z,2.22
2022-08-25T18:24:13.393Z,2.00
2022-08-25T18:26:46.250Z,1.80
2022-08-25T18:29:14.307Z,2.08
2022-08-25T18:31:47.376Z,1.90
2022-08-25T18:34:16.470Z,2.00
2022-08-25T18:36:47.040Z,2.10
2022-08-25T18:39:34.899Z,2.28
2022-08-25T18:42:07.180Z,2.10
2022-08-25T18:44:36.537Z,2.03
2022-08-25T18:47:05.908Z,2.20
2022-08-25T18:49:37.762Z,2.17
2022-08-25T18:52:07.523Z,2.15
2022-08-25T18:54:36.443Z,2.08
2022-08-25T18:57:08.869Z,2.10
2022-08-25T18:59:39.304Z,2.05
2022-08-25T19:02:12.814Z,2.10
2022-08-25T19:04:41.521Z,2.30
2022-08-25T19:07:12.573Z,2.22
2022-08-25T19:09:41.358Z,2.05
2022-08-25T19:12:11.578Z,2.33
2022-08-25T19:14:42.925Z,2.20
2022-08-25T19:17:12.791Z,2.05
2022-08-25T19:19:41.141Z,2.42
2022-08-25T19:22:38.131Z,2.50
2022-08-25T19:24:59.753Z,2.33
2022-08-25T19:27:28.229Z,2.67
2022-08-25T19:29:57.602Z,2.58
2022-08-25T19:32:27.923Z,2.40
2022-08-25T19:34:56.378Z,2.67
2022-08-25T19:37:29.291Z,2.40
2022-08-25T19:39:58.712Z,2.40
2022-08-25T19:42:35.058Z,2.53
2022-08-25T19:45:09.694Z,2.45
2022-08-25T19:47:37.956Z,2.28
2022-08-25T19:50:08.162Z,2.42
2022-08-25T19:52:40.016Z,2.42
2022-08-25T19:55:10.951Z,2.30
2022-08-25T19:57:42.664Z,2.33
2022-08-25T20:00:29.424Z,2.33
2022-08-25T20:02:58.548Z,2.40
2022-08-25T20:05:28.638Z,2.65
2022-08-25T20:07:58.310Z,2.70
2022-08-25T20:10:33.285Z,2.40
2022-08-25T20:13:10.897Z,2.30
2022-08-25T20:15:39.508Z,2.40
2022-08-25T20:18:07.784Z,2.33
2022-08-25T20:20:36.851Z,2.40
2022-08-25T20:23:25.230Z,2.47
2022-08-25T20:25:57.132Z,2.42
2022-08-25T20:28:26.252Z,2.28
2022-08-25T20:30:56.434Z,2.42
2022-08-25T20:33:25.999Z,2.50
2022-08-25T20:35:55.368Z,2.42
2022-08-25T20:38:24.087Z,2.63
2022-08-25T20:40:52.194Z,2.45
2022-08-25T20:43:20.747Z,2.30
2022-08-25T20:45:49.181Z,2.47
2022-08-25T20:48:17.956Z,2.50
2022-08-25T20:50:45.994Z,2.50
2022-08-25T20:53:26.738Z,2.80
2022-08-25T20:55:55.758Z,2.70
2022-08-25T20:58:23.989Z,2.67
2022-08-25T21:00:54.744Z,2.60
2022-08-25T21:03:23.800Z,2.53
2022-08-25T21:05:53.951Z,3.00
2022-08-25T21:08:23.744Z,2.70
2022-08-25T21:10:53.865Z,2.58
2022-08-25T21:13:22.760Z,2.80
2022-08-25T21:15:52.146Z,2.92
2022-08-25T21:18:20.336Z,2.97
2022-08-25T21:20:48.827Z,2.90
2022-08-25T21:23:17.733Z,2.58
2022-08-25T21:25:46.305Z,2.53
2022-08-25T21:28:16.407Z,2.72
2022-08-25T21:30:47.418Z,2.85
2022-08-25T21:33:16.266Z,2.70
2022-08-25T21:35:46.944Z,2.50
2022-08-25T21:38:15.506Z,2.72
2022-08-25T21:40:45.047Z,2.55
2022-08-25T21:43:13.172Z,2.42
2022-08-25T21:45:46.810Z,2.72
2022-08-25T21:48:15.551Z,2.75
2022-08-25T21:50:43.694Z,2.78
2022-08-25T21:53:11.933Z,2.72
2022-08-25T21:55:42.151Z,3.10
2022-08-25T21:58:12.285Z,2.83
2022-08-25T22:00:45.293Z,2.58
2022-08-25T22:03:13.382Z,2.97
2022-08-25T22:05:43.231Z,2.95
2022-08-25T22:10:45.395Z,2.42
2022-08-25T22:13:13.954Z,2.75
2022-08-25T22:15:41.845Z,2.60
2022-08-25T22:18:10.217Z,2.75
2022-08-25T22:20:39.177Z,2.90
2022-08-25T22:23:09.327Z,2.47
2022-08-25T22:25:37.458Z,2.90
2022-08-25T22:28:06.901Z,3.42
2022-08-25T22:30:37.198Z,2.85
2022-08-25T22:33:07.397Z,2.90
2022-08-25T22:35:37.974Z,2.95
2022-08-25T22:38:12.480Z,2.67
2022-08-25T22:40:41.729Z,2.80
2022-08-25T22:43:10.931Z,2.88
2022-08-25T22:45:40.842Z,3.45
2022-08-25T22:48:10.107Z,3.00
2022-08-25T22:50:39.575Z,3.00
2022-08-25T22:53:09.239Z,2.80
2022-08-25T22:55:43.624Z,3.00
2022-08-25T22:58:12.432Z,3.08
2022-08-25T23:00:42.794Z,3.00
2022-08-25T23:03:12.074Z,3.13
2022-08-25T23:05:40.964Z,3.08
2022-08-25T23:08:08.866Z,3.17
2022-08-25T23:10:38.422Z,3.13
2022-08-25T23:13:07.487Z,3.10
2022-08-25T23:15:36.374Z,3.28
2022-08-25T23:18:06.253Z,3.05
2022-08-25T23:20:54.069Z,3.05
2022-08-25T23:23:22.299Z,2.90
2022-08-25T23:25:51.434Z,3.78
2022-08-25T23:28:20.230Z,3.20
2022-08-25T23:30:59.245Z,3.28
2022-08-25T23:33:27.573Z,3.17
2022-08-25T23:36:01.973Z,3.33
2022-08-25T23:38:29.969Z,3.30
2022-08-25T23:40:59.141Z,3.20
2022-08-25T23:43:27.554Z,3.60
2022-08-25T23:45:57.524Z,3.00
2022-08-25T23:48:26.061Z,3.35
2022-08-25T23:50:54.380Z,3.40
2022-08-25T23:53:22.645Z,3.35
2022-08-25T23:55:54.059Z,3.17
2022-08-25T23:58:22.459Z,3.28
